Harbinger, North Carolina
Current Conditions -  °F | °C
As of 3:55 PM on Thursday 18 Dec 2014 (Local Time) from KFFA Reporting Station
Scattered Clouds Scattered Clouds  
Wind Chill: 44°   Ceiling: Unl
Heat Index: 44°   Visibility: 10mi
Dew Point: 31°   Wind: 0mph
Humidity: 61%   Direction: NA
Pressure: 30.08"   Gusts: NA
Location:  36.1°N, 75.81°W
Report Text: KFFA 182055Z AUTO 00000KT 10SM SCT110 07/00 A3008 RMK AO2 T00681003
Loading
Personal Weather Stations






























Interactive Weather Map New forecast layout! Learn more

10-Day Weather Forecast

Advertisements
Track Severe Weather on mobile